Time;durP1;ratioP1;P1;durP2;ratioP2;P2;SDS_P1;SDS_P2;PMS_P1;PMS_P2;Temp;Humidity;BMP_temperature;BMP_pressure;BME280_temperature;BME280_humidity;BME280_pressure;Samples;Min_cycle;Max_cycle;Signal;HPM_P1;HPM_P2
2022/01/03 00:00:25;;;;;;;2.70;1.20;;;8.80;99.90;;;;;;5093155;28;20541;-63
2022/01/03 00:02:57;;;;;;;3.13;1.37;;;8.80;99.90;;;;;;5091938;28;20192;-62
2022/01/03 00:05:23;;;;;;;2.13;1.27;;;8.80;99.90;;;;;;5091895;28;20172;-61
2022/01/03 00:07:48;;;;;;;1.93;1.30;;;8.90;99.90;;;;;;5093145;28;20173;-61
2022/01/03 00:10:16;;;;;;;2.53;1.20;;;8.90;99.90;;;;;;5092388;28;20217;-61
2022/01/03 00:12:43;;;;;;;1.70;1.20;;;9.00;99.90;;;;;;5092775;28;20189;-61
2022/01/03 00:15:13;;;;;;;2.73;1.37;;;9.20;99.90;;;;;;5093432;28;20220;-61
2022/01/03 00:17:39;;;;;;;5.23;1.20;;;9.40;99.90;;;;;;5091792;28;20719;-61
2022/01/03 00:20:06;;;;;;;1.80;1.10;;;9.60;99.90;;;;;;5093375;28;20649;-61
2022/01/03 00:22:39;;;;;;;2.37;1.50;;;9.80;99.90;;;;;;5072060;28;20273;-60
2022/01/03 00:25:10;;;;;;;3.00;1.57;;;9.90;99.90;;;;;;5071727;28;20627;-60
2022/01/03 00:28:14;;;;;;;2.10;1.30;;;9.80;99.90;;;;;;5072090;28;20179;-61
2022/01/03 00:30:42;;;;;;;2.93;1.57;;;9.80;99.90;;;;;;5091259;28;20541;-61
2022/01/03 00:33:08;;;;;;;3.17;1.70;;;9.70;99.90;;;;;;5092863;28;20183;-60
2022/01/03 00:35:36;;;;;;;2.93;1.43;;;9.60;99.90;;;;;;5091539;28;20205;-61
2022/01/03 00:38:03;;;;;;;1.70;0.97;;;9.50;99.90;;;;;;5092767;28;20625;-61
2022/01/03 00:40:29;;;;;;;2.23;1.40;;;9.40;99.90;;;;;;5092261;28;20298;-63
2022/01/03 00:42:54;;;;;;;2.93;1.30;;;9.30;99.90;;;;;;5092819;28;20178;-61
2022/01/03 00:45:20;;;;;;;2.40;1.30;;;9.10;99.90;;;;;;5093092;28;20225;-61
2022/01/03 00:47:47;;;;;;;1.77;1.20;;;9.00;99.90;;;;;;5092252;28;20272;-61
2022/01/03 00:50:18;;;;;;;2.10;1.20;;;9.00;99.90;;;;;;5086535;28;20630;-69
2022/01/03 00:52:48;;;;;;;2.10;1.30;;;9.00;99.90;;;;;;5071694;28;20173;-62
2022/01/03 00:55:14;;;;;;;2.47;1.37;;;9.00;99.90;;;;;;5072040;28;20219;-63
2022/01/03 00:58:02;;;;;;;2.80;1.40;;;9.00;99.90;;;;;;5072058;28;20183;-62
2022/01/03 01:00:31;;;;;;;2.63;1.10;;;9.00;99.90;;;;;;5071752;28;20201;-60
2022/01/03 01:03:03;;;;;;;2.17;1.27;;;9.10;99.90;;;;;;5071708;28;20186;-61
2022/01/03 01:05:29;;;;;;;2.30;1.30;;;9.30;99.90;;;;;;5071687;28;20529;-64
2022/01/03 01:07:56;;;;;;;3.70;1.50;;;9.30;99.90;;;;;;5072091;28;20196;-61
2022/01/03 01:10:30;;;;;;;2.50;1.40;;;9.30;99.90;;;;;;5070580;28;20190;-61
2022/01/03 01:12:57;;;;;;;1.63;1.30;;;9.40;99.90;;;;;;5072072;28;20255;-61
2022/01/03 01:15:25;;;;;;;2.17;1.47;;;9.40;99.90;;;;;;5071954;28;20233;-61
2022/01/03 01:17:53;;;;;;;3.20;1.70;;;9.40;99.90;;;;;;5071313;28;20170;-61
2022/01/03 01:20:20;;;;;;;2.03;1.40;;;9.30;99.90;;;;;;5073188;28;20214;-62
2022/01/03 01:22:47;;;;;;;2.63;1.60;;;9.40;99.90;;;;;;5092027;28;20181;-61
2022/01/03 01:27:49;;;;;;;1.70;1.20;;;9.30;99.90;;;;;;5092108;28;20184;-62
2022/01/03 01:30:19;;;;;;;2.83;1.50;;;9.20;99.90;;;;;;5091512;28;20184;-63
2022/01/03 01:33:13;;;;;;;3.10;1.57;;;9.20;99.90;;;;;;5092136;28;20251;-61
2022/01/03 01:35:46;;;;;;;2.77;1.40;;;9.10;99.90;;;;;;5091611;28;20645;-61
2022/01/03 01:38:20;;;;;;;1.97;1.30;;;9.20;99.90;;;;;;5091967;28;20646;-61
2022/01/03 01:40:51;;;;;;;2.23;1.43;;;9.20;99.90;;;;;;5091337;28;20221;-61
2022/01/03 01:43:45;;;;;;;2.20;1.40;;;9.10;99.90;;;;;;5091450;28;20532;-60
2022/01/03 01:46:13;;;;;;;1.43;1.03;;;9.10;99.90;;;;;;5090854;28;20165;-60
2022/01/03 01:48:42;;;;;;;2.40;1.10;;;9.10;99.90;;;;;;5091595;28;20185;-62
2022/01/03 01:51:10;;;;;;;1.93;1.20;;;9.00;99.90;;;;;;5087082;28;20209;-61
2022/01/03 01:53:42;;;;;;;1.87;1.17;;;9.00;99.90;;;;;;5091286;28;20180;-60
2022/01/03 01:56:39;;;;;;;3.40;1.50;;;9.10;99.90;;;;;;5091921;28;20169;-60
2022/01/03 01:59:25;;;;;;;2.57;1.50;;;9.30;99.90;;;;;;5083553;28;20262;-60
2022/01/03 02:02:01;;;;;;;2.60;1.60;;;9.40;99.90;;;;;;5091851;28;20174;-61
2022/01/03 02:04:29;;;;;;;2.13;1.33;;;9.40;99.90;;;;;;5091358;28;20630;-60
2022/01/03 02:06:57;;;;;;;2.27;1.30;;;9.50;99.90;;;;;;5091496;28;20178;-60
2022/01/03 02:09:42;;;;;;;2.63;1.60;;;9.50;99.90;;;;;;5091470;28;20178;-61
2022/01/03 02:12:14;;;;;;;2.80;1.70;;;9.50;99.90;;;;;;5091824;28;20247;-61
2022/01/03 02:14:41;;;;;;;2.27;1.50;;;9.50;99.90;;;;;;5091265;28;20704;-59
2022/01/03 02:17:07;;;;;;;2.80;1.70;;;9.50;99.90;;;;;;5090137;28;20575;-60
2022/01/03 02:19:39;;;;;;;3.90;1.60;;;9.50;99.90;;;;;;5091099;28;20285;-61
2022/01/03 02:22:05;;;;;;;3.70;1.60;;;9.60;99.90;;;;;;5091203;28;20178;-60
2022/01/03 02:24:31;;;;;;;2.67;1.53;;;9.70;99.90;;;;;;5090954;28;20722;-62
2022/01/03 02:27:00;;;;;;;3.20;1.10;;;9.80;99.90;;;;;;5091422;28;20226;-61
2022/01/03 02:29:25;;;;;;;2.60;1.30;;;9.80;99.90;;;;;;5092953;28;20787;-61
2022/01/03 02:31:51;;;;;;;2.00;1.47;;;9.70;99.90;;;;;;5095352;28;20256;-61
2022/01/03 02:34:17;;;;;;;2.57;1.60;;;9.70;99.90;;;;;;5094729;28;20215;-62
2022/01/03 02:36:45;;;;;;;2.90;1.43;;;9.60;99.90;;;;;;5093724;28;20178;-60
2022/01/03 02:39:11;;;;;;;2.10;1.40;;;9.60;99.90;;;;;;5095364;28;20218;-60
2022/01/03 02:41:37;;;;;;;3.23;1.83;;;9.60;99.90;;;;;;5093285;28;20191;-62
2022/01/03 02:44:02;;;;;;;3.90;1.50;;;9.60;99.90;;;;;;5094658;28;20271;-60
2022/01/03 02:46:28;;;;;;;3.40;1.70;;;9.60;99.90;;;;;;5094670;28;20182;-61
2022/01/03 02:48:54;;;;;;;2.50;1.53;;;9.60;99.90;;;;;;5093862;28;20641;-60
2022/01/03 02:51:20;;;;;;;4.13;1.80;;;9.60;99.90;;;;;;5089659;28;20234;-61
2022/01/03 02:53:46;;;;;;;4.47;1.80;;;9.50;99.90;;;;;;5094879;28;20181;-61
2022/01/03 02:56:11;;;;;;;3.40;1.83;;;9.50;99.90;;;;;;5094897;28;20189;-60
2022/01/03 02:58:37;;;;;;;4.03;1.93;;;9.40;99.90;;;;;;5094251;28;20190;-61
2022/01/03 03:01:04;;;;;;;2.53;1.43;;;9.20;99.90;;;;;;5094917;28;20181;-60
2022/01/03 03:03:30;;;;;;;3.27;1.70;;;9.10;99.90;;;;;;5093905;28;20261;-60
2022/01/03 03:05:58;;;;;;;3.33;1.90;;;9.00;99.90;;;;;;5093917;28;20589;-62
2022/01/03 03:08:24;;;;;;;2.67;1.70;;;8.80;99.90;;;;;;5093874;28;20588;-61
2022/01/03 03:10:50;;;;;;;2.83;1.57;;;8.70;99.90;;;;;;5094177;28;20185;-61
2022/01/03 03:13:15;;;;;;;3.67;1.80;;;8.60;99.90;;;;;;5093973;28;20648;-60
2022/01/03 03:15:41;;;;;;;4.67;1.90;;;8.60;99.90;;;;;;5092558;28;20228;-60
2022/01/03 03:18:09;;;;;;;4.13;2.00;;;8.60;99.90;;;;;;5094366;28;20243;-61
2022/01/03 03:20:36;;;;;;;3.53;2.00;;;8.60;99.90;;;;;;5094247;28;20208;-61
2022/01/03 03:23:02;;;;;;;4.63;1.93;;;8.80;99.90;;;;;;5094911;28;20173;-60
2022/01/03 03:25:34;;;;;;;3.90;1.60;;;8.80;99.90;;;;;;5093856;28;20185;-60
2022/01/03 03:28:12;;;;;;;2.97;1.60;;;8.80;99.90;;;;;;5094515;28;20172;-61
2022/01/03 03:30:41;;;;;;;2.30;1.57;;;8.60;99.90;;;;;;5093418;28;20660;-61
2022/01/03 03:33:29;;;;;;;3.30;1.83;;;8.50;99.90;;;;;;5094695;28;20234;-61
2022/01/03 03:35:56;;;;;;;3.17;1.80;;;8.50;99.90;;;;;;5093587;28;20227;-61
2022/01/03 03:38:25;;;;;;;2.87;1.70;;;8.50;99.90;;;;;;5093745;28;20180;-61
2022/01/03 03:40:55;;;;;;;3.60;1.97;;;8.40;99.90;;;;;;5093549;28;20289;-61
2022/01/03 03:43:21;;;;;;;2.90;1.90;;;8.40;99.90;;;;;;5093563;28;20212;-61
2022/01/03 03:45:50;;;;;;;3.17;2.07;;;8.40;99.90;;;;;;5093845;28;20187;-61
2022/01/03 03:48:18;;;;;;;3.17;2.20;;;8.50;99.90;;;;;;5093217;28;20622;-61
2022/01/03 03:50:45;;;;;;;3.37;2.17;;;8.50;99.90;;;;;;5088312;28;20193;-60
2022/01/03 03:53:10;;;;;;;3.90;2.10;;;8.60;99.90;;;;;;5093544;28;20177;-61
2022/01/03 03:55:36;;;;;;;6.47;1.90;;;8.60;99.90;;;;;;5092949;28;20175;-61
2022/01/03 03:58:03;;;;;;;2.97;2.00;;;8.60;99.90;;;;;;5093685;28;20650;-61
2022/01/03 04:00:29;;;;;;;2.37;2.00;;;8.50;99.90;;;;;;5092799;28;20211;-60
2022/01/03 04:02:55;;;;;;;3.90;2.27;;;8.50;99.90;;;;;;5093195;28;20626;-60
2022/01/03 04:05:21;;;;;;;6.70;3.00;;;8.40;99.90;;;;;;5092603;28;20207;-61
2022/01/03 04:07:47;;;;;;;8.27;3.77;;;8.40;99.90;;;;;;5093142;28;20180;-61
2022/01/03 04:10:15;;;;;;;5.07;2.97;;;8.40;99.90;;;;;;5093092;28;20550;-60
2022/01/03 04:12:42;;;;;;;5.17;3.20;;;8.30;99.90;;;;;;5093085;28;20517;-61
2022/01/03 04:15:08;;;;;;;7.73;3.50;;;8.30;99.90;;;;;;5091421;28;20234;-61
2022/01/03 04:17:35;;;;;;;5.20;3.70;;;8.30;99.90;;;;;;5092777;28;20185;-61
2022/01/03 04:20:01;;;;;;;6.20;3.60;;;8.30;99.90;;;;;;5092996;28;20212;-62
2022/01/03 04:22:26;;;;;;;5.80;3.20;;;8.40;99.90;;;;;;5092422;28;20247;-60
2022/01/03 04:24:52;;;;;;;4.53;2.80;;;8.40;99.90;;;;;;5092578;28;20279;-60
2022/01/03 04:27:18;;;;;;;4.67;2.83;;;8.40;99.90;;;;;;5092682;28;20183;-60
2022/01/03 04:29:44;;;;;;;5.00;3.60;;;8.50;99.90;;;;;;5092667;28;20184;-60
2022/01/03 04:32:09;;;;;;;4.87;3.13;;;8.50;99.90;;;;;;5092613;28;20513;-60
2022/01/03 04:34:35;;;;;;;4.30;2.87;;;8.50;99.90;;;;;;5091789;28;20185;-61
2022/01/03 04:37:01;;;;;;;5.37;2.87;;;8.50;99.90;;;;;;5091212;28;20196;-63
2022/01/03 04:39:27;;;;;;;5.00;2.90;;;8.60;99.90;;;;;;5092585;28;20270;-61
2022/01/03 04:41:52;;;;;;;4.23;2.80;;;8.60;99.90;;;;;;5092140;28;20270;-62
2022/01/03 04:44:19;;;;;;;4.80;2.73;;;8.60;99.90;;;;;;5090786;28;20258;-59
2022/01/03 04:46:45;;;;;;;6.27;2.97;;;8.70;99.90;;;;;;5092198;28;20656;-61
2022/01/03 04:49:11;;;;;;;8.57;2.90;;;8.80;99.90;;;;;;5090106;28;20299;-60
2022/01/03 04:51:37;;;;;;;3.77;2.60;;;8.70;99.90;;;;;;5086544;28;20200;-62
2022/01/03 04:54:03;;;;;;;11.43;3.23;;;8.60;99.90;;;;;;5091735;28;20185;-61
2022/01/03 04:56:29;;;;;;;3.90;2.20;;;8.50;99.90;;;;;;5091886;28;20181;-61
2022/01/03 04:58:56;;;;;;;4.53;2.90;;;8.50;99.90;;;;;;5090863;28;20189;-62
2022/01/03 05:01:22;;;;;;;4.77;2.60;;;8.30;99.90;;;;;;5091253;28;20180;-61
2022/01/03 05:03:48;;;;;;;2.77;2.03;;;8.10;99.90;;;;;;5091830;28;20176;-63
2022/01/03 05:06:14;;;;;;;4.47;2.47;;;8.00;99.90;;;;;;5090917;28;20177;-69
2022/01/03 05:08:41;;;;;;;7.27;3.07;;;8.00;99.90;;;;;;5091663;28;20301;-60
2022/01/03 05:11:07;;;;;;;4.83;2.47;;;8.00;99.90;;;;;;5091761;28;20186;-62
2022/01/03 05:13:33;;;;;;;6.07;2.90;;;8.20;99.90;;;;;;5089388;28;20291;-62
2022/01/03 05:16:00;;;;;;;5.37;2.83;;;8.10;99.90;;;;;;5091365;28;20177;-63
2022/01/03 05:18:26;;;;;;;5.47;2.90;;;8.10;99.90;;;;;;5090598;28;20614;-60
2022/01/03 05:20:52;;;;;;;4.27;2.73;;;8.20;99.90;;;;;;5090603;28;20680;-61
2022/01/03 05:23:18;;;;;;;4.00;2.50;;;8.30;99.90;;;;;;5089412;28;20270;-62
2022/01/03 05:25:44;;;;;;;4.03;2.60;;;8.20;99.90;;;;;;5089573;28;20197;-63
2022/01/03 05:28:10;;;;;;;4.50;2.53;;;8.20;99.90;;;;;;5091063;28;20177;-63
2022/01/03 05:30:36;;;;;;;11.60;4.60;;;8.20;99.90;;;;;;5089206;28;20189;-63
2022/01/03 05:33:02;;;;;;;4.30;2.90;;;8.20;99.90;;;;;;5073048;28;20182;-61
2022/01/03 05:35:28;;;;;;;4.50;2.87;;;8.30;99.90;;;;;;5088945;28;20609;-64
2022/01/03 05:37:54;;;;;;;8.13;4.30;;;8.50;99.90;;;;;;5089546;28;20573;-62
2022/01/03 05:40:20;;;;;;;7.33;4.30;;;8.60;99.90;;;;;;5090471;28;20205;-62
2022/01/03 05:42:46;;;;;;;5.63;3.30;;;8.50;99.90;;;;;;5089334;28;20550;-61
2022/01/03 05:45:13;;;;;;;5.97;3.33;;;8.60;99.90;;;;;;5090912;28;20590;-61
2022/01/03 05:47:46;;;;;;;4.40;3.00;;;8.60;99.90;;;;;;5090220;28;20190;-64
2022/01/03 05:50:17;;;;;;;5.07;3.10;;;8.70;99.90;;;;;;5084598;28;20178;-63
2022/01/03 05:52:44;;;;;;;5.87;3.17;;;8.70;99.90;;;;;;5091116;28;20593;-61
2022/01/03 05:55:10;;;;;;;5.13;3.17;;;8.60;99.90;;;;;;5089359;28;20185;-63
2022/01/03 05:57:36;;;;;;;8.63;3.83;;;8.60;99.90;;;;;;5090387;28;20270;-62
2022/01/03 06:00:04;;;;;;;6.90;3.93;;;8.50;99.90;;;;;;5090594;28;20217;-62
2022/01/03 06:02:35;;;;;;;4.83;3.60;;;8.50;99.90;;;;;;5090625;28;20178;-63
2022/01/03 06:05:02;;;;;;;8.30;4.10;;;8.50;99.90;;;;;;5092751;28;20535;-61
2022/01/03 06:07:28;;;;;;;6.43;3.60;;;8.50;99.90;;;;;;5092852;28;20551;-62
2022/01/03 06:09:54;;;;;;;9.37;4.80;;;8.50;99.90;;;;;;5093888;28;20337;-61
2022/01/03 06:12:20;;;;;;;6.83;4.33;;;8.50;99.90;;;;;;5093862;28;20192;-62
2022/01/03 06:14:47;;;;;;;9.37;4.83;;;8.40;99.90;;;;;;5095020;28;20329;-62
2022/01/03 06:17:15;;;;;;;10.77;5.90;;;8.30;99.90;;;;;;5095571;28;20641;-62
2022/01/03 06:19:41;;;;;;;8.37;4.93;;;8.30;99.90;;;;;;5094308;28;20212;-63
2022/01/03 06:22:09;;;;;;;6.93;4.67;;;8.30;99.90;;;;;;5094209;28;20185;-61
2022/01/03 06:24:37;;;;;;;10.67;5.50;;;8.40;99.90;;;;;;5094509;28;20169;-62
2022/01/03 06:27:03;;;;;;;11.23;5.33;;;8.50;99.90;;;;;;5094000;28;20205;-59
2022/01/03 06:29:29;;;;;;;7.63;4.57;;;8.50;99.90;;;;;;5084708;28;20705;-61
2022/01/03 06:31:54;;;;;;;7.70;3.87;;;8.50;99.90;;;;;;5073764;28;20190;-61
2022/01/03 06:34:20;;;;;;;7.27;4.33;;;8.50;99.90;;;;;;5074057;28;20181;-62
2022/01/03 06:36:46;;;;;;;8.10;4.60;;;8.50;99.90;;;;;;5072994;28;20636;-60
2022/01/03 06:39:12;;;;;;;8.87;3.83;;;8.60;99.90;;;;;;5072677;28;20302;-59
2022/01/03 06:41:39;;;;;;;6.40;3.80;;;8.70;99.90;;;;;;5080902;28;20496;-59
2022/01/03 06:44:06;;;;;;;5.83;3.60;;;8.80;99.90;;;;;;5080983;28;20236;-60
2022/01/03 06:46:33;;;;;;;10.73;4.63;;;9.00;99.90;;;;;;5092357;28;20196;-60
2022/01/03 06:49:00;;;;;;;8.80;4.33;;;9.10;99.90;;;;;;5087125;28;20234;-61
2022/01/03 06:51:31;;;;;;;6.73;4.20;;;9.20;99.90;;;;;;5084649;28;20275;-60
2022/01/03 06:53:57;;;;;;;6.80;4.10;;;9.20;99.90;;;;;;5092039;28;20188;-64
2022/01/03 06:56:23;;;;;;;9.20;5.20;;;9.20;99.90;;;;;;5087839;28;20254;-63
2022/01/03 06:58:48;;;;;;;8.00;3.97;;;9.20;99.90;;;;;;5088511;28;20681;-63
2022/01/03 07:01:14;;;;;;;6.50;4.20;;;9.10;99.90;;;;;;5082690;28;20183;-63
2022/01/03 07:03:40;;;;;;;8.30;4.67;;;9.00;99.90;;;;;;5086452;28;20241;-64
2022/01/03 07:06:06;;;;;;;9.30;5.17;;;9.00;99.90;;;;;;5091331;28;20195;-63
2022/01/03 07:08:32;;;;;;;8.17;4.43;;;8.90;99.90;;;;;;5084200;28;20199;-62
2022/01/03 07:10:58;;;;;;;7.23;4.40;;;8.90;99.90;;;;;;5089457;28;20332;-62
2022/01/03 07:13:26;;;;;;;6.57;4.00;;;8.90;99.90;;;;;;5092265;28;20244;-61
2022/01/03 07:21:20;;;;;;;11.60;5.77;;;9.20;99.90;;;;;;5081282;28;20199;-64
2022/01/03 07:23:46;;;;;;;14.63;6.13;;;9.20;99.90;;;;;;5090699;28;20180;-63
2022/01/03 07:26:11;;;;;;;7.30;4.77;;;9.20;99.90;;;;;;5083079;28;20314;-62
2022/01/03 07:28:37;;;;;;;4.73;3.20;;;9.20;99.90;;;;;;5088515;28;20464;-65
2022/01/03 07:31:03;;;;;;;7.20;4.00;;;9.20;99.90;;;;;;5084578;28;20200;-64
2022/01/03 07:33:29;;;;;;;6.50;3.50;;;9.30;99.90;;;;;;5087378;28;20277;-63
2022/01/03 07:35:54;;;;;;;7.70;4.87;;;9.30;99.90;;;;;;5087922;28;20709;-63
2022/01/03 07:38:20;;;;;;;10.03;6.30;;;9.40;99.90;;;;;;5085171;28;20190;-64
2022/01/03 07:40:46;;;;;;;17.77;7.53;;;9.50;99.90;;;;;;5084933;28;20295;-64
2022/01/03 07:43:12;;;;;;;14.57;7.30;;;9.50;99.90;;;;;;5084119;28;20189;-63
2022/01/03 07:45:37;;;;;;;13.60;7.47;;;9.50;99.90;;;;;;5086240;28;20624;-64
2022/01/03 07:48:03;;;;;;;17.70;8.47;;;9.40;99.90;;;;;;5082634;28;20185;-64
2022/01/03 07:50:29;;;;;;;17.93;10.90;;;9.40;99.90;;;;;;5085988;28;20216;-64
2022/01/03 07:52:58;;;;;;;22.30;12.70;;;9.30;99.90;;;;;;5081789;28;20195;-64
2022/01/03 07:55:24;;;;;;;20.03;10.73;;;9.20;99.90;;;;;;5088652;28;20193;-64
2022/01/03 07:57:50;;;;;;;21.07;9.83;;;9.10;99.90;;;;;;5081607;28;20192;-64
2022/01/03 08:00:17;;;;;;;24.43;11.87;;;9.00;99.90;;;;;;5088984;28;20603;-66
2022/01/03 08:02:43;;;;;;;20.33;10.60;;;9.00;99.90;;;;;;5080384;28;20261;-66
2022/01/03 08:05:12;;;;;;;19.47;9.33;;;8.90;99.90;;;;;;5089752;28;20286;-63
2022/01/03 08:07:38;;;;;;;22.27;9.67;;;8.90;99.90;;;;;;5092252;28;20221;-63
2022/01/03 08:10:06;;;;;;;22.70;11.73;;;8.70;99.90;;;;;;5092221;28;20625;-64
2022/01/03 08:12:32;;;;;;;19.97;12.03;;;8.70;99.90;;;;;;5091469;28;20233;-64
2022/01/03 08:14:58;;;;;;;19.57;10.37;;;8.60;99.90;;;;;;5091245;28;20697;-63
2022/01/03 08:17:24;;;;;;;22.07;11.73;;;8.50;99.90;;;;;;5090980;28;20176;-64
2022/01/03 08:19:49;;;;;;;15.37;9.17;;;8.40;99.90;;;;;;5091460;28;20214;-63
2022/01/03 08:22:16;;;;;;;30.23;11.40;;;8.40;99.90;;;;;;5091895;28;20549;-68
2022/01/03 08:24:44;;;;;;;17.50;9.63;;;8.40;99.90;;;;;;5089970;28;20281;-64
2022/01/03 08:27:10;;;;;;;23.13;10.47;;;8.40;99.90;;;;;;5087826;28;20251;-65
2022/01/03 08:29:35;;;;;;;14.57;8.17;;;8.40;99.90;;;;;;5090538;28;20210;-66
2022/01/03 08:32:01;;;;;;;17.83;10.07;;;8.50;99.90;;;;;;5090713;28;20185;-64
2022/01/03 08:34:27;;;;;;;23.70;10.53;;;8.50;99.90;;;;;;5089646;28;20181;-63
2022/01/03 08:36:53;;;;;;;19.63;10.50;;;8.60;99.90;;;;;;5091329;28;20638;-63
2022/01/03 08:39:19;;;;;;;17.57;9.57;;;8.70;99.90;;;;;;5091627;28;20215;-63
2022/01/03 08:41:44;;;;;;;24.70;11.60;;;8.90;99.90;;;;;;5092019;28;20627;-64
2022/01/03 08:44:10;;;;;;;29.80;12.73;;;9.30;99.90;;;;;;5090274;28;20194;-64
2022/01/03 08:46:36;;;;;;;28.63;13.43;;;9.70;99.90;;;;;;5091647;28;20203;-65
2022/01/03 08:49:02;;;;;;;30.33;14.53;;;9.80;99.90;;;;;;5091266;28;20203;-66
2022/01/03 08:51:28;;;;;;;28.17;14.17;;;9.90;99.90;;;;;;5086184;28;20596;-63
2022/01/03 08:53:54;;;;;;;27.77;13.67;;;10.00;99.90;;;;;;5091525;28;20184;-64
2022/01/03 08:56:21;;;;;;;38.40;16.43;;;10.20;99.90;;;;;;5092081;28;20177;-63
2022/01/03 08:58:47;;;;;;;40.87;18.73;;;10.40;99.90;;;;;;5091577;28;20173;-63
2022/01/03 09:01:12;;;;;;;44.77;22.93;;;10.50;99.90;;;;;;5091274;28;20250;-63
2022/01/03 09:03:38;;;;;;;35.07;18.80;;;10.50;99.90;;;;;;5090751;28;20199;-64
2022/01/03 09:06:04;;;;;;;43.67;20.30;;;10.60;99.90;;;;;;5091256;28;20256;-63
2022/01/03 09:08:30;;;;;;;29.30;15.83;;;10.80;99.90;;;;;;5090934;28;20547;-63
2022/01/03 09:10:56;;;;;;;31.60;15.97;;;11.00;99.90;;;;;;5091111;28;20241;-64
2022/01/03 09:13:22;;;;;;;31.73;16.10;;;11.20;99.90;;;;;;5090504;28;20587;-65
2022/01/03 09:15:49;;;;;;;21.70;12.47;;;11.30;99.90;;;;;;5090931;28;20601;-64
2022/01/03 09:18:17;;;;;;;16.63;9.70;;;11.50;99.90;;;;;;5091181;28;20238;-62
2022/01/03 09:20:44;;;;;;;12.40;7.07;;;11.80;99.90;;;;;;5090756;28;20213;-64
2022/01/03 09:23:16;;;;;;;19.30;8.77;;;12.00;99.90;;;;;;5089767;28;20191;-65
2022/01/03 09:30:55;;;;;;;10.43;7.00;;;12.20;99.90;;;;;;5070805;28;20180;-62
2022/01/03 09:33:21;;;;;;;15.57;7.17;;;12.20;99.90;;;;;;5070463;28;20269;-63
2022/01/03 09:35:47;;;;;;;11.43;6.80;;;12.20;99.90;;;;;;5070825;28;20664;-63
2022/01/03 09:38:13;;;;;;;14.83;8.07;;;12.10;99.90;;;;;;5072848;28;20261;-65
2022/01/03 09:40:40;;;;;;;22.43;10.80;;;11.90;99.90;;;;;;5074623;28;20210;-66
2022/01/03 09:43:08;;;;;;;20.93;9.30;;;11.70;99.90;;;;;;5073222;28;20193;-64
2022/01/03 09:45:37;;;;;;;14.23;7.53;;;11.60;99.90;;;;;;5074814;28;20180;-64
2022/01/03 09:48:04;;;;;;;15.83;9.20;;;11.50;99.90;;;;;;5074652;28;20189;-64
2022/01/03 09:50:34;;;;;;;18.60;9.97;;;11.50;99.90;;;;;;5079146;28;20192;-64
2022/01/03 09:53:03;;;;;;;24.73;10.37;;;11.60;99.90;;;;;;5074850;28;20184;-64
2022/01/03 09:55:31;;;;;;;25.30;10.50;;;11.60;99.90;;;;;;5074432;28;20313;-63
2022/01/03 09:57:57;;;;;;;19.60;11.13;;;11.60;99.90;;;;;;5074461;28;20178;-62
2022/01/03 10:00:23;;;;;;;22.50;11.80;;;11.70;99.90;;;;;;5073602;28;20558;-63
2022/01/03 10:02:51;;;;;;;21.57;11.30;;;11.90;99.90;;;;;;5073932;28;20536;-63
2022/01/03 10:05:17;;;;;;;18.93;10.60;;;12.00;99.90;;;;;;5074250;28;20266;-68
2022/01/03 10:07:44;;;;;;;15.67;9.50;;;11.90;99.90;;;;;;5074285;28;20185;-65
2022/01/03 10:10:11;;;;;;;18.83;10.57;;;11.90;99.90;;;;;;5074423;28;20208;-64
2022/01/03 10:12:37;;;;;;;23.40;10.83;;;12.00;99.90;;;;;;5074016;28;20182;-63
2022/01/03 10:15:05;;;;;;;14.17;8.63;;;12.20;99.90;;;;;;5072308;28;20649;-64
2022/01/03 10:17:41;;;;;;;17.23;9.40;;;12.20;99.90;;;;;;5073765;28;20177;-63
2022/01/03 10:20:12;;;;;;;31.30;10.67;;;12.40;99.90;;;;;;5072560;28;20561;-69
2022/01/03 10:22:40;;;;;;;25.63;10.17;;;12.50;99.90;;;;;;5073879;28;20652;-63
2022/01/03 10:25:15;;;;;;;23.93;10.40;;;12.40;99.90;;;;;;5074679;28;20514;-65
2022/01/03 10:27:49;;;;;;;31.83;12.37;;;12.50;99.90;;;;;;5073857;28;20179;-63
2022/01/03 10:30:38;;;;;;;15.33;7.57;;;12.70;99.90;;;;;;5089255;28;20263;-64
2022/01/03 10:33:07;;;;;;;22.90;9.70;;;12.50;99.90;;;;;;5094091;28;20183;-64
2022/01/03 10:35:41;;;;;;;24.57;9.90;;;12.70;99.90;;;;;;5093957;28;20169;-64
2022/01/03 10:38:09;;;;;;;24.53;11.10;;;12.90;99.90;;;;;;5094544;28;20157;-63
2022/01/03 10:40:36;;;;;;;11.93;7.07;;;13.10;99.90;;;;;;5093299;28;20731;-66
2022/01/03 10:43:19;;;;;;;18.33;7.57;;;13.20;99.90;;;;;;5091928;28;20558;-63
2022/01/03 10:45:46;;;;;;;15.30;7.57;;;13.30;99.90;;;;;;5093805;28;20176;-65
2022/01/03 10:48:33;;;;;;;16.37;8.37;;;13.00;99.90;;;;;;5093129;28;20189;-65
2022/01/03 10:51:00;;;;;;;17.83;7.80;;;12.80;99.90;;;;;;5079001;28;20692;-63
2022/01/03 10:53:41;;;;;;;13.50;7.97;;;12.80;99.90;;;;;;5072720;28;20182;-64
2022/01/03 10:56:24;;;;;;;11.90;7.13;;;12.70;99.90;;;;;;5071362;28;20184;-62
2022/01/03 10:58:52;;;;;;;13.97;6.77;;;12.70;99.90;;;;;;5071952;28;20231;-64
2022/01/03 11:01:30;;;;;;;24.43;10.27;;;12.30;99.90;;;;;;5072791;28;20194;-70
2022/01/03 11:03:59;;;;;;;12.80;7.10;;;12.20;99.90;;;;;;5072932;28;20165;-63
2022/01/03 11:11:46;;;;;;;12.20;7.07;;;12.00;99.90;;;;;;5073340;28;20207;-63
2022/01/03 11:14:33;;;;;;;17.43;7.40;;;11.90;99.90;;;;;;5072491;28;20257;-62
2022/01/03 11:16:59;;;;;;;106.60;14.67;;;11.60;99.90;;;;;;5072473;28;20177;-64
2022/01/03 11:19:43;;;;;;;13.00;7.60;;;11.50;99.90;;;;;;5072800;28;20252;-64
2022/01/03 11:22:09;;;;;;;21.17;7.90;;;11.40;99.90;;;;;;5089328;28;20184;-63
2022/01/03 11:24:48;;;;;;;15.63;7.37;;;11.40;99.90;;;;;;5092721;28;20250;-65
2022/01/03 11:27:14;;;;;;;17.97;6.87;;;11.50;99.90;;;;;;5075345;28;20566;-64
2022/01/03 11:29:42;;;;;;;11.13;5.43;;;11.60;99.90;;;;;;5091359;28;20192;-63
2022/01/03 11:32:09;;;;;;;12.63;6.03;;;11.60;99.90;;;;;;5092503;28;20223;-64
2022/01/03 11:34:35;;;;;;;11.93;5.87;;;11.50;99.90;;;;;;5092040;28;20181;-62
2022/01/03 11:37:03;;;;;;;10.70;5.43;;;11.60;99.90;;;;;;5091656;28;20199;-64
2022/01/03 11:39:32;;;;;;;10.10;5.07;;;11.70;99.90;;;;;;5092336;28;20215;-63
2022/01/03 11:41:59;;;;;;;10.43;5.83;;;11.80;99.90;;;;;;5092924;28;20193;-64
2022/01/03 11:44:26;;;;;;;11.97;5.60;;;12.10;99.90;;;;;;5092091;28;20641;-62
2022/01/03 11:46:52;;;;;;;11.20;6.10;;;12.30;99.90;;;;;;5091428;28;20641;-63
2022/01/03 11:49:19;;;;;;;9.93;5.53;;;12.50;99.90;;;;;;5092611;28;20209;-68
2022/01/03 11:51:46;;;;;;;13.57;5.90;;;12.50;99.90;;;;;;5088253;28;20268;-64
2022/01/03 11:54:14;;;;;;;10.10;5.60;;;12.60;99.90;;;;;;5091993;28;20650;-64
2022/01/03 11:56:48;;;;;;;13.10;6.50;;;12.60;99.90;;;;;;5091342;28;20259;-63
2022/01/03 12:04:30;;;;;;;14.70;5.73;;;12.50;99.90;;;;;;5091437;28;20164;-63
2022/01/03 12:07:09;;;;;;;12.23;5.77;;;12.50;99.90;;;;;;5091795;28;20169;-62
2022/01/03 12:09:38;;;;;;;12.53;6.00;;;12.60;99.90;;;;;;5092043;28;20250;-64
2022/01/03 12:12:05;;;;;;;39.57;8.90;;;12.60;99.90;;;;;;5090632;28;20234;-64
2022/01/03 12:14:44;;;;;;;20.40;9.03;;;12.60;99.90;;;;;;5089835;28;20327;-63
2022/01/03 12:17:14;;;;;;;17.53;7.23;;;12.60;99.90;;;;;;5091663;28;20183;-62
2022/01/03 12:19:42;;;;;;;19.07;6.93;;;12.40;99.90;;;;;;5090307;28;20198;-64
2022/01/03 12:22:18;;;;;;;232.23;24.73;;;12.30;99.90;;;;;;5091490;28;20197;-65
2022/01/03 12:24:56;;;;;;;19.40;8.17;;;12.20;99.90;;;;;;5091550;28;20176;-62
2022/01/03 12:27:27;;;;;;;17.10;8.07;;;12.10;99.90;;;;;;5091956;28;20166;-64
2022/01/03 12:29:56;;;;;;;20.97;7.80;;;11.90;99.90;;;;;;5091873;28;20194;-62
2022/01/03 12:32:29;;;;;;;31.97;9.13;;;11.90;99.90;;;;;;5089267;28;20536;-63
2022/01/03 12:35:10;;;;;;;16.83;7.73;;;11.90;99.90;;;;;;5091699;28;20153;-63
2022/01/03 12:37:42;;;;;;;17.63;9.17;;;11.80;99.90;;;;;;5091638;28;20177;-62
2022/01/03 12:40:08;;;;;;;21.03;9.20;;;11.80;99.90;;;;;;5091125;28;20200;-63
2022/01/03 12:42:51;;;;;;;29.67;9.80;;;11.80;99.90;;;;;;5091114;28;20184;-62
2022/01/03 12:45:29;;;;;;;14.47;8.73;;;11.50;99.90;;;;;;5091279;28;20593;-66
2022/01/03 12:48:08;;;;;;;21.03;10.27;;;11.50;99.90;;;;;;5089809;28;20180;-66
2022/01/03 12:50:42;;;;;;;25.20;10.27;;;11.50;99.90;;;;;;5085995;28;20187;-62
2022/01/03 12:53:11;;;;;;;27.53;10.93;;;11.40;99.90;;;;;;5091592;28;20169;-63
2022/01/03 12:55:43;;;;;;;15.00;8.40;;;11.40;99.90;;;;;;5090404;28;20191;-64
2022/01/03 12:58:17;;;;;;;20.37;9.37;;;11.30;99.90;;;;;;5091402;28;20189;-65
2022/01/03 13:00:47;;;;;;;16.10;8.27;;;11.20;99.90;;;;;;5090854;28;20192;-67
2022/01/03 13:03:23;;;;;;;24.67;10.50;;;11.10;99.90;;;;;;5091384;28;20203;-65
2022/01/03 13:06:20;;;;;;;22.43;10.53;;;11.10;99.90;;;;;;5090895;28;20203;-63
2022/01/03 13:08:48;;;;;;;29.97;11.07;;;11.10;99.90;;;;;;5091510;28;20667;-64
2022/01/03 13:11:15;;;;;;;23.53;9.77;;;11.10;99.90;;;;;;5091239;28;20550;-62
2022/01/03 13:13:43;;;;;;;19.07;8.70;;;11.00;99.90;;;;;;5089907;28;20184;-63
2022/01/03 13:16:23;;;;;;;18.07;9.20;;;10.90;99.90;;;;;;5091083;28;20601;-63
2022/01/03 13:18:52;;;;;;;16.97;7.37;;;10.90;99.90;;;;;;5090209;28;20192;-62